02:13 Rennrad Tschirgantrunde mittel
Ort Moetz Datum 22.06.2015 11:15:01
Kategorie Rennrad
Distanz 66,77 Kilometer Steigung 726,0 Meter Gefälle -704,0 Meter
Gesamt Zeit 02:12:37 Aktiv 02:12:37 Pause 00:00:00
Durchs. Tempo 30,2 km/h Tempo max. 69,8 km/h Tempo min. 15,1 km/h
Kalorien 0 Durchs. HF 128 BPM HF max. 158 BPM
Wetter 20 °C PartClouds Min/Max: 19,0 °C/23,6 °C; Druck: 1012,3 mbar; Rel. Feuchte: 79,1%; Taupunkt: 17,2 °C; Niederschlag: 0,0mm
Ausrüstung Bontrager - RXL Road
Continental - Grand Prix 4000 S
Poison - Rennrad
Shimano - HG CN-7901 Dura Ace
Notiz Moetz - Imst - Nassereith - Holzleitensattel - Barwies - Telfs - Moetz ... super Wetter, relativ wenig Wind, kein Windschatten, locker bis flott ... garmin connect
Splits
Distanz (km) Gesamt Zeit Split Zeit Split Tempo Split Tempo Höhenprofil (m)
1,00 00:02:11 00:02:11 00:02:12 27,3 -9,88
2,00 00:04:14 00:02:02 00:02:03 29,3 2,02
3,00 00:06:09 00:01:55 00:01:55 31,3 7,87
4,00 00:08:06 00:01:56 00:01:57 30,9 9,31
5,00 00:10:15 00:02:09 00:02:10 27,8 5,55
6,00 00:12:09 00:01:53 00:01:54 31,7 5,89
7,00 00:14:02 00:01:52 00:01:53 31,9 1,28
8,00 00:15:58 00:01:56 00:01:56 30,9 7,15
9,00 00:17:53 00:01:54 00:01:54 31,5 3,29
10,00 00:20:01 00:02:08 00:02:09 28,0 17,43
11,00 00:22:48 00:02:46 00:02:46 21,6 26,07
12,00 00:24:31 00:01:43 00:01:43 34,9 1,28
13,00 00:26:23 00:01:51 00:01:52 32,3 -0,99
14,00 00:27:55 00:01:32 00:01:33 38,8 -14,89
15,00 00:30:53 00:02:57 00:02:58 20,3 48,13
16,00 00:34:31 00:03:37 00:03:38 16,5 51,61
17,00 00:37:12 00:02:41 00:02:41 22,3 1,33
18,00 00:38:27 00:01:14 00:01:15 48,2 -32,95
19,00 00:39:46 00:01:19 00:01:20 45,2 -21,10
20,00 00:40:57 00:01:10 00:01:11 51,0 -29,38
21,00 00:43:45 00:02:48 00:02:49 21,4 33,57
22,00 00:46:21 00:02:36 00:02:36 23,1 24,32
23,00 00:49:14 00:02:52 00:02:53 20,8 47,70
24,00 00:51:12 00:01:57 00:01:57 30,7 -1,66
25,00 00:52:41 00:01:29 00:01:29 40,3 -19,22
26,00 00:54:15 00:01:34 00:01:34 38,2 -14,51
27,00 00:56:21 00:02:05 00:02:05 28,7 17,89
28,00 00:58:18 00:01:57 00:01:58 30,6 4,16
29,00 01:00:05 00:01:46 00:01:46 33,8 -2,20
30,00 01:02:06 00:02:01 00:02:02 29,5 0,59
31,00 01:03:55 00:01:48 00:01:48 33,2 1,96
32,00 01:06:05 00:02:10 00:02:10 27,6 9,73
33,00 01:07:54 00:01:48 00:01:48 33,2 -12,22
34,00 01:09:36 00:01:42 00:01:42 35,3 -9,38
35,00 01:12:47 00:03:11 00:03:11 18,8 44,76
36,00 01:16:36 00:03:49 00:03:49 15,7 58,13
37,00 01:20:18 00:03:41 00:03:42 16,2 48,97
38,00 01:24:00 00:03:42 00:03:42 16,2 55,36
39,00 01:27:17 00:03:16 00:03:17 18,3 39,47
40,00 01:29:55 00:02:37 00:02:37 22,9 28,64
41,00 01:32:49 00:02:54 00:02:54 20,7 30,48
42,00 01:33:56 00:01:06 00:01:07 53,8 -58,37
43,00 01:34:51 00:00:55 00:00:56 64,6 -48,30
44,00 01:36:08 00:01:16 00:01:16 47,2 -25,45
45,00 01:37:23 00:01:15 00:01:15 48,0 -45,93
46,00 01:38:43 00:01:20 00:01:20 45,0 -46,77
47,00 01:40:36 00:01:53 00:01:53 31,8 -14,92
48,00 01:42:25 00:01:49 00:01:49 32,9 -4,92
49,00 01:44:03 00:01:37 00:01:38 36,8 -5,65
50,00 01:45:35 00:01:32 00:01:32 39,1 -15,29
51,00 01:46:47 00:01:12 00:01:12 49,9 -40,58
52,00 01:47:59 00:01:11 00:01:12 50,1 -33,35
53,00 01:49:17 00:01:17 00:01:18 46,4 -30,94
54,00 01:50:33 00:01:16 00:01:17 47,0 -42,16
55,00 01:51:38 00:01:05 00:01:05 55,3 -54,24
56,00 01:53:46 00:02:07 00:02:08 28,2 -23,81
57,00 01:55:42 00:01:55 00:01:56 31,1 -1,08
58,00 01:57:23 00:01:40 00:01:41 35,8 1,92
59,00 01:59:03 00:01:40 00:01:41 35,7 2,56
60,00 02:00:51 00:01:47 00:01:48 33,4 6,74
61,00 02:02:29 00:01:37 00:01:37 37,0 1,48
62,00 02:04:13 00:01:44 00:01:45 34,3 -1,84
63,00 02:05:54 00:01:40 00:01:40 35,9 1,63
64,00 02:07:34 00:01:40 00:01:41 35,8 4,00
65,00 02:09:15 00:01:41 00:01:41 35,6 0,02
66,00 02:11:04 00:01:48 00:01:49 33,0 -0,55
66,75 02:12:36 00:01:31 00:02:02 29,5 10,29